createdAt,value
2019-05-26T00:01:56.366Z,95084.78
2019-05-26T00:04:23.095Z,95076.91
2019-05-26T00:06:50.022Z,95087.77
2019-05-26T00:09:16.842Z,95083.80
2019-05-26T00:11:43.546Z,95082.97
2019-05-26T00:14:10.360Z,95079.97
2019-05-26T00:16:37.075Z,95071.06
2019-05-26T00:19:03.982Z,95069.19
2019-05-26T00:21:30.782Z,95068.01
2019-05-26T00:23:57.562Z,95072.56
2019-05-26T00:26:24.270Z,95070.05
2019-05-26T00:28:51.166Z,95067.41
2019-05-26T00:31:18.025Z,95067.70
2019-05-26T00:33:44.797Z,95066.33
2019-05-26T00:36:11.626Z,95065.25
2019-05-26T00:38:38.321Z,95063.63
2019-05-26T00:41:05.143Z,95067.20
2019-05-26T00:43:31.861Z,95072.63
2019-05-26T00:45:59.646Z,95076.98
2019-05-26T00:48:26.433Z,95062.20
2019-05-26T00:50:53.191Z,95066.82
2019-05-26T00:53:20.005Z,95068.77
2019-05-26T00:55:46.998Z,95072.31
2019-05-26T00:58:13.769Z,95072.90
2019-05-26T01:00:41.611Z,95070.50
2019-05-26T01:03:09.999Z,95074.88
2019-05-26T01:05:37.062Z,95078.11
2019-05-26T01:08:06.725Z,95071.88
2019-05-26T01:10:35.581Z,95078.02
2019-05-26T01:13:03.741Z,95082.55
2019-05-26T01:15:30.631Z,95087.48
2019-05-26T01:17:57.710Z,95080.45
2019-05-26T01:20:24.581Z,95087.14
2019-05-26T01:22:53.807Z,95085.32
2019-05-26T01:25:20.074Z,95085.13
2019-05-26T01:27:47.902Z,95087.78
2019-05-26T01:30:15.100Z,95085.13
2019-05-26T01:32:41.802Z,95092.69
2019-05-26T01:35:08.782Z,95092.96
2019-05-26T01:37:37.273Z,95097.09
2019-05-26T01:40:06.373Z,95092.72
2019-05-26T01:42:33.225Z,95096.94
2019-05-26T01:45:00.019Z,95100.52
2019-05-26T01:47:27.920Z,95092.34
2019-05-26T01:49:54.693Z,95090.72
2019-05-26T01:52:21.403Z,95089.17
2019-05-26T01:54:48.197Z,95079.56
2019-05-26T01:57:14.997Z,95083.44
2019-05-26T01:59:41.974Z,95079.92
2019-05-26T02:02:08.818Z,95085.96
2019-05-26T02:04:35.596Z,95081.81
2019-05-26T02:07:02.339Z,95084.30
2019-05-26T02:09:29.115Z,95079.45
2019-05-26T02:11:56.010Z,95083.03
2019-05-26T02:14:23.858Z,95080.52
2019-05-26T02:16:50.568Z,95083.55
2019-05-26T02:19:17.345Z,95083.31
2019-05-26T02:21:44.145Z,95079.83
2019-05-26T02:24:10.860Z,95081.18
2019-05-26T02:26:37.662Z,95081.67
2019-05-26T02:29:04.603Z,95077.64
2019-05-26T02:31:31.548Z,95085.49
2019-05-26T02:33:58.507Z,95089.03
2019-05-26T02:36:25.345Z,95086.33
2019-05-26T02:39:01.777Z,95090.67
2019-05-26T02:41:21.075Z,95087.90
2019-05-26T02:43:47.868Z,95090.59
2019-05-26T02:46:14.582Z,95089.41
2019-05-26T02:48:41.395Z,95094.84
2019-05-26T02:51:08.113Z,95093.52
2019-05-26T02:53:34.868Z,95096.50
2019-05-26T02:56:01.630Z,95101.38
2019-05-26T02:58:28.328Z,95093.83
2019-05-26T03:00:54.991Z,95092.74
2019-05-26T03:03:22.207Z,95097.39
2019-05-26T03:05:50.216Z,95103.89
2019-05-26T03:08:17.293Z,95101.20
2019-05-26T03:10:44.356Z,95097.94
2019-05-26T03:13:15.096Z,95106.91
2019-05-26T03:15:43.524Z,95101.73
2019-05-26T03:18:10.279Z,95110.98
2019-05-26T03:20:39.407Z,95099.33
2019-05-26T03:23:07.640Z,95106.30
2019-05-26T03:25:36.462Z,95098.30
2019-05-26T03:28:06.626Z,95113.19
2019-05-26T03:30:34.223Z,95115.87
2019-05-26T03:33:01.198Z,95114.17
2019-05-26T03:35:28.349Z,95112.84
2019-05-26T03:37:55.060Z,95113.63
2019-05-26T03:40:21.974Z,95115.69
2019-05-26T03:42:48.657Z,95117.81
2019-05-26T03:45:39.781Z,95116.98
2019-05-26T03:48:06.545Z,95119.39
2019-05-26T03:50:33.271Z,95114.77
2019-05-26T03:53:01.136Z,95116.33
2019-05-26T03:55:27.938Z,95110.84
2019-05-26T03:57:54.654Z,95118.28
2019-05-26T04:00:21.614Z,95122.05
2019-05-26T04:02:48.318Z,95119.34
2019-05-26T04:05:15.129Z,95117.14
2019-05-26T04:07:42.154Z,95114.95
2019-05-26T04:10:09.328Z,95120.63
2019-05-26T04:12:36.036Z,95125.14
2019-05-26T04:15:05.790Z,95123.37
2019-05-26T04:17:32.533Z,95126.26
2019-05-26T04:19:59.317Z,95124.94
2019-05-26T04:22:26.069Z,95134.78
2019-05-26T04:24:52.843Z,95127.14
2019-05-26T04:27:19.748Z,95129.55
2019-05-26T04:29:47.630Z,95134.09
2019-05-26T04:32:14.419Z,95129.08
2019-05-26T04:34:41.111Z,95138.70
2019-05-26T04:37:07.901Z,95129.39
2019-05-26T04:39:34.618Z,95134.17
2019-05-26T04:42:02.081Z,95130.96
2019-05-26T04:44:29.964Z,95132.53
2019-05-26T04:46:56.680Z,95135.40
2019-05-26T04:49:24.108Z,95129.95
2019-05-26T04:51:50.946Z,95136.61
2019-05-26T04:54:17.618Z,95131.94
2019-05-26T04:56:44.497Z,95138.36
2019-05-26T04:59:11.257Z,95142.20
2019-05-26T05:01:37.974Z,95141.80
2019-05-26T05:04:04.790Z,95142.62
2019-05-26T05:06:31.504Z,95137.95
2019-05-26T05:08:58.272Z,95139.56
2019-05-26T05:11:25.093Z,95135.27
2019-05-26T05:13:51.817Z,95135.67
2019-05-26T05:16:18.593Z,95137.84
2019-05-26T05:18:45.364Z,95133.96
2019-05-26T05:21:12.268Z,95138.16
2019-05-26T05:23:39.014Z,95145.25
2019-05-26T05:26:05.783Z,95142.18
2019-05-26T05:28:32.566Z,95143.84
2019-05-26T05:30:59.305Z,95146.09
2019-05-26T05:33:25.993Z,95138.07
2019-05-26T05:35:54.010Z,95140.85
2019-05-26T05:38:20.781Z,95138.59
2019-05-26T05:40:58.868Z,95137.00
2019-05-26T05:43:16.212Z,95139.17
2019-05-26T05:45:43.056Z,95145.68
2019-05-26T05:48:09.777Z,95147.32
2019-05-26T05:50:39.159Z,95149.38
2019-05-26T05:53:05.328Z,95153.32
2019-05-26T05:55:32.016Z,95155.06
2019-05-26T05:57:58.690Z,95154.03
2019-05-26T06:00:25.450Z,95160.58
2019-05-26T06:02:52.271Z,95159.63
2019-05-26T06:05:18.991Z,95157.59
2019-05-26T06:07:45.854Z,95153.80
2019-05-26T06:10:12.756Z,95153.13
2019-05-26T06:12:39.434Z,95149.83
2019-05-26T06:15:08.896Z,95150.14
2019-05-26T06:17:36.589Z,95149.34
2019-05-26T06:20:05.654Z,95154.52
2019-05-26T06:22:32.493Z,95155.34
2019-05-26T06:24:59.200Z,95159.95
2019-05-26T06:27:25.916Z,95158.37
2019-05-26T06:29:58.740Z,95157.58
2019-05-26T06:32:21.296Z,95152.77
2019-05-26T06:34:48.162Z,95157.58
2019-05-26T06:37:14.961Z,95157.23
2019-05-26T06:39:41.741Z,95155.45
2019-05-26T06:42:08.513Z,95159.91
2019-05-26T06:44:52.024Z,95161.46
2019-05-26T06:47:05.183Z,95157.30
2019-05-26T06:49:31.950Z,95163.09
2019-05-26T06:51:58.766Z,95155.06
2019-05-26T06:54:25.485Z,95156.03
2019-05-26T06:56:52.334Z,95152.63
2019-05-26T06:59:19.139Z,95151.58
2019-05-26T07:01:45.864Z,95160.98
2019-05-26T07:04:12.708Z,95160.08
2019-05-26T07:06:39.435Z,95159.36
2019-05-26T07:09:06.444Z,95160.95
2019-05-26T07:11:47.125Z,95164.97
2019-05-26T07:14:02.166Z,95165.55
2019-05-26T07:16:38.255Z,95162.69
2019-05-26T07:18:58.532Z,95166.39
2019-05-26T07:21:25.234Z,95169.05
2019-05-26T07:23:52.112Z,95172.05
2019-05-26T07:26:18.915Z,95170.64
2019-05-26T07:28:45.614Z,95171.68
2019-05-26T07:31:12.455Z,95171.28
2019-05-26T07:33:39.225Z,95164.38
2019-05-26T07:36:05.900Z,95165.08
2019-05-26T07:38:33.746Z,95169.63
2019-05-26T07:41:00.441Z,95168.61
2019-05-26T07:43:28.094Z,95171.72
2019-05-26T07:45:55.526Z,95169.10
2019-05-26T07:48:22.258Z,95160.04
2019-05-26T07:50:48.973Z,95162.78
2019-05-26T07:53:15.743Z,95169.41
2019-05-26T07:55:42.630Z,95173.65
2019-05-26T07:58:09.394Z,95171.22
2019-05-26T08:00:36.223Z,95175.50
2019-05-26T08:03:03.139Z,95167.34
2019-05-26T08:05:29.824Z,95170.86
2019-05-26T08:08:11.596Z,95172.42
2019-05-26T08:10:25.212Z,95167.83
2019-05-26T08:12:51.981Z,95175.75
2019-05-26T08:15:19.218Z,95178.27
2019-05-26T08:17:45.971Z,95175.54
2019-05-26T08:20:13.470Z,95178.05
2019-05-26T08:22:40.339Z,95178.30
2019-05-26T08:25:07.827Z,95173.70
2019-05-26T08:27:34.945Z,95173.75
2019-05-26T08:30:01.816Z,95179.50
2019-05-26T08:32:28.808Z,95181.97
2019-05-26T08:34:55.498Z,95180.95
2019-05-26T08:37:22.607Z,95183.64
2019-05-26T08:39:49.396Z,95178.75
2019-05-26T08:42:26.946Z,95179.13
2019-05-26T08:44:44.847Z,95178.08
2019-05-26T08:47:11.606Z,95175.52
2019-05-26T08:49:38.295Z,95174.30
2019-05-26T08:52:05.051Z,95172.97
2019-05-26T08:54:31.840Z,95172.45
2019-05-26T08:56:58.825Z,95177.33
2019-05-26T08:59:25.614Z,95175.48
2019-05-26T09:01:52.281Z,95168.37
2019-05-26T09:04:18.964Z,95166.28
2019-05-26T09:06:45.917Z,95166.84
2019-05-26T09:09:13.775Z,95165.22
2019-05-26T09:11:40.722Z,95171.20
2019-05-26T09:14:07.593Z,95174.15
2019-05-26T09:19:01.253Z,95169.01
2019-05-26T09:21:28.338Z,95167.16
2019-05-26T09:23:55.147Z,95170.29
2019-05-26T09:26:21.911Z,95169.63
2019-05-26T09:28:48.694Z,95176.17
2019-05-26T09:31:15.375Z,95174.25
2019-05-26T09:33:42.075Z,95172.33
2019-05-26T09:36:08.921Z,95169.70
2019-05-26T09:38:35.691Z,95169.52
2019-05-26T09:41:02.707Z,95170.17
2019-05-26T09:43:29.495Z,95169.69
2019-05-26T09:45:56.178Z,95164.54
2019-05-26T09:48:22.927Z,95178.86
2019-05-26T09:50:49.738Z,95168.02
2019-05-26T09:53:16.467Z,95155.59
2019-05-26T09:55:44.270Z,95160.02
2019-05-26T09:58:11.106Z,95156.23
2019-05-26T10:00:38.018Z,95161.56
2019-05-26T10:03:04.804Z,95161.90
2019-05-26T10:05:31.650Z,95153.91
2019-05-26T10:07:58.515Z,95153.47
2019-05-26T10:10:25.213Z,95158.06
2019-05-26T10:12:52.030Z,95156.32
2019-05-26T10:15:19.014Z,95157.25
2019-05-26T10:17:45.714Z,95151.13
2019-05-26T10:20:12.685Z,95152.67
2019-05-26T10:22:39.452Z,95152.80
2019-05-26T10:25:06.513Z,95151.87
2019-05-26T10:27:33.217Z,95159.89
2019-05-26T10:30:00.009Z,95152.75
2019-05-26T10:32:26.791Z,95153.28
2019-05-26T10:34:53.552Z,95152.03
2019-05-26T10:37:20.330Z,95156.00
2019-05-26T10:39:47.367Z,95150.97
2019-05-26T10:42:14.329Z,95156.00
2019-05-26T10:44:41.088Z,95151.56
2019-05-26T10:47:07.967Z,95144.88
2019-05-26T10:49:35.866Z,95145.83
2019-05-26T10:52:02.608Z,95147.98
2019-05-26T10:54:29.378Z,95149.19
2019-05-26T10:56:56.444Z,95141.92
2019-05-26T10:59:24.296Z,95146.39
2019-05-26T11:01:51.090Z,95141.69
2019-05-26T11:04:17.836Z,95135.31
2019-05-26T11:06:44.767Z,95133.06
2019-05-26T11:09:11.456Z,95132.07
2019-05-26T11:11:38.148Z,95136.75
2019-05-26T11:14:04.960Z,95133.03
2019-05-26T11:16:31.725Z,95130.42
2019-05-26T11:18:58.471Z,95137.09
2019-05-26T11:21:25.191Z,95129.44
2019-05-26T11:23:51.875Z,95135.80
2019-05-26T11:26:18.902Z,95128.75
2019-05-26T11:28:45.569Z,95132.27
2019-05-26T11:31:12.553Z,95136.14
2019-05-26T11:33:39.248Z,95127.47
2019-05-26T11:36:05.986Z,95131.17
2019-05-26T11:38:33.789Z,95139.50
2019-05-26T11:41:00.826Z,95135.16
2019-05-26T11:43:27.631Z,95134.39
2019-05-26T11:45:54.348Z,95131.62
2019-05-26T11:48:21.120Z,95138.37
2019-05-26T11:50:47.868Z,95138.53
2019-05-26T11:53:14.549Z,95133.92
2019-05-26T11:55:42.472Z,95130.26
2019-05-26T11:58:09.343Z,95125.78
2019-05-26T12:00:36.176Z,95124.69
2019-05-26T12:03:02.963Z,95130.95
2019-05-26T12:05:29.711Z,95132.64
2019-05-26T12:07:56.442Z,95127.25
2019-05-26T12:10:23.333Z,95128.72
2019-05-26T12:12:50.348Z,95129.55
2019-05-26T12:15:17.422Z,95133.07
2019-05-26T12:17:44.124Z,95121.78
2019-05-26T12:20:11.478Z,95120.80
2019-05-26T12:22:38.401Z,95127.16
2019-05-26T12:25:07.210Z,95117.33
2019-05-26T12:27:33.981Z,95124.84
2019-05-26T12:30:00.760Z,95122.25
2019-05-26T12:32:27.569Z,95113.13
2019-05-26T12:34:54.293Z,95112.47
2019-05-26T12:37:21.182Z,95113.26
2019-05-26T12:39:47.890Z,95114.36
2019-05-26T12:42:17.008Z,95112.38
2019-05-26T12:44:49.458Z,95109.88
2019-05-26T12:47:12.975Z,95111.75
2019-05-26T12:49:39.718Z,95097.95
2019-05-26T12:52:06.848Z,95099.53
2019-05-26T12:54:33.547Z,95099.22
2019-05-26T12:57:00.335Z,95099.97
2019-05-26T12:59:27.070Z,95103.44
2019-05-26T13:01:53.789Z,95099.02
2019-05-26T13:04:20.551Z,95100.35
2019-05-26T13:06:47.242Z,95091.84
2019-05-26T13:09:14.394Z,95097.66
2019-05-26T13:11:41.172Z,95099.09
2019-05-26T13:14:07.849Z,95094.34
2019-05-26T13:16:35.910Z,95081.73
2019-05-26T13:19:03.558Z,95084.95
2019-05-26T13:21:30.279Z,95078.22
2019-05-26T13:23:57.065Z,95076.23
2019-05-26T13:26:23.875Z,95077.03
2019-05-26T13:28:50.568Z,95076.34
2019-05-26T13:31:17.330Z,95077.14
2019-05-26T13:33:44.144Z,95067.35
2019-05-26T13:36:10.844Z,95069.23
2019-05-26T13:38:37.572Z,95070.86
2019-05-26T13:41:04.331Z,95064.72
2019-05-26T13:43:31.070Z,95065.62
2019-05-26T13:45:57.814Z,95062.33
2019-05-26T13:48:24.698Z,95058.84
2019-05-26T13:50:51.507Z,95065.50
2019-05-26T13:53:18.293Z,95067.09
2019-05-26T13:55:45.092Z,95066.28
2019-05-26T13:58:11.753Z,95065.99
2019-05-26T14:00:38.440Z,95066.73
2019-05-26T14:03:05.563Z,95062.78
2019-05-26T14:05:32.332Z,95055.23
2019-05-26T14:07:59.079Z,95056.72
2019-05-26T14:10:31.325Z,95058.55
2019-05-26T14:12:59.160Z,95061.58
2019-05-26T14:15:37.178Z,95070.86
2019-05-26T14:17:56.812Z,95067.13
2019-05-26T14:20:27.263Z,95062.39
2019-05-26T14:22:53.985Z,95067.30
2019-05-26T14:25:20.742Z,95072.91
2019-05-26T14:27:47.531Z,95073.39
2019-05-26T14:30:14.391Z,95070.78
2019-05-26T14:32:41.268Z,95062.74
2019-05-26T14:35:08.285Z,95055.31
2019-05-26T14:37:35.084Z,95055.94
2019-05-26T14:40:02.726Z,95056.20
2019-05-26T14:42:29.509Z,95061.34
2019-05-26T14:44:56.323Z,95058.73
2019-05-26T14:47:23.157Z,95061.39
2019-05-26T14:49:49.874Z,95068.46
2019-05-26T14:52:16.581Z,95062.84
2019-05-26T14:54:43.330Z,95068.46
2019-05-26T14:57:10.317Z,95065.92
2019-05-26T14:59:37.108Z,95064.11
2019-05-26T15:02:03.968Z,95068.02
2019-05-26T15:04:31.303Z,95060.81
2019-05-26T15:06:58.114Z,95063.23
2019-05-26T15:09:25.623Z,95059.63
2019-05-26T15:11:52.514Z,95066.55
2019-05-26T15:14:19.294Z,95058.05
2019-05-26T15:16:46.116Z,95063.66
2019-05-26T15:19:12.838Z,95071.16
2019-05-26T15:21:40.583Z,95059.52
2019-05-26T15:24:07.350Z,95057.86
2019-05-26T15:26:34.110Z,95061.66
2019-05-26T15:29:00.940Z,95056.48
2019-05-26T15:31:27.770Z,95059.84
2019-05-26T15:33:54.480Z,95049.98
2019-05-26T15:36:21.242Z,95049.13
2019-05-26T15:38:48.111Z,95048.85
2019-05-26T15:41:15.232Z,95046.83
2019-05-26T15:43:41.955Z,95051.73
2019-05-26T15:46:23.910Z,95050.75
2019-05-26T15:48:38.782Z,95057.84
2019-05-26T15:51:05.503Z,95057.54
2019-05-26T15:53:32.806Z,95052.01
2019-05-26T15:55:59.755Z,95054.34
2019-05-26T15:58:26.549Z,95058.28
2019-05-26T16:00:53.242Z,95056.00
2019-05-26T16:03:20.172Z,95055.64
2019-05-26T16:05:46.882Z,95054.86
2019-05-26T16:08:13.651Z,95048.89
2019-05-26T16:10:40.411Z,95050.75
2019-05-26T16:13:07.121Z,95051.98
2019-05-26T16:15:33.976Z,95063.44
2019-05-26T16:18:00.667Z,95057.43
2019-05-26T16:20:27.501Z,95060.30
2019-05-26T16:22:54.287Z,95053.27
2019-05-26T16:25:21.083Z,95057.56
2019-05-26T16:27:47.998Z,95054.94
2019-05-26T16:30:15.424Z,95061.09
2019-05-26T16:32:42.213Z,95057.09
2019-05-26T16:35:09.748Z,95063.22
2019-05-26T16:37:36.551Z,95060.77
2019-05-26T16:40:04.412Z,95065.71
2019-05-26T16:42:31.188Z,95063.39
2019-05-26T16:44:57.926Z,95069.88
2019-05-26T16:47:24.599Z,95066.26
2019-05-26T16:49:51.434Z,95071.63
2019-05-26T16:52:18.192Z,95078.65
2019-05-26T16:54:44.968Z,95084.97
2019-05-26T16:57:11.664Z,95083.11
2019-05-26T16:59:38.337Z,95072.72
2019-05-26T17:02:06.752Z,95072.66
2019-05-26T17:04:33.637Z,95077.97
2019-05-26T17:07:00.475Z,95079.98
2019-05-26T17:09:27.424Z,95084.08
2019-05-26T17:11:54.125Z,95089.32
2019-05-26T17:14:21.071Z,95083.53
2019-05-26T17:16:47.882Z,95079.88
2019-05-26T17:19:14.596Z,95086.67
2019-05-26T17:21:41.381Z,95085.63
2019-05-26T17:24:10.040Z,95096.70
2019-05-26T17:26:36.838Z,95102.88
2019-05-26T17:29:03.529Z,95094.49
2019-05-26T17:31:30.441Z,95092.52
2019-05-26T17:33:57.136Z,95091.80
2019-05-26T17:36:24.003Z,95093.80
2019-05-26T17:38:50.825Z,95095.97
2019-05-26T17:41:17.532Z,95096.38
2019-05-26T17:43:44.287Z,95102.72
2019-05-26T17:46:11.084Z,95099.38
2019-05-26T17:48:37.854Z,95093.53
2019-05-26T17:51:04.863Z,95098.45
2019-05-26T17:53:31.565Z,95099.27
2019-05-26T17:55:58.257Z,95106.92
2019-05-26T17:58:25.031Z,95103.33
2019-05-26T18:00:51.809Z,95101.13
2019-05-26T18:03:18.666Z,95101.49
2019-05-26T18:05:45.515Z,95098.75
2019-05-26T18:08:12.374Z,95106.67
2019-05-26T18:10:39.152Z,95107.37
2019-05-26T18:13:05.861Z,95104.23
2019-05-26T18:15:32.627Z,95111.80
2019-05-26T18:17:59.565Z,95105.61
2019-05-26T18:20:26.451Z,95120.73
2019-05-26T18:22:53.282Z,95126.42
2019-05-26T18:25:20.153Z,95136.70
2019-05-26T18:27:46.966Z,95140.39
2019-05-26T18:30:14.270Z,95136.49
2019-05-26T18:32:41.225Z,95137.18
2019-05-26T18:35:08.382Z,95143.78
2019-05-26T18:37:36.134Z,95143.78
2019-05-26T18:40:04.708Z,95131.67
2019-05-26T18:42:31.492Z,95139.59
2019-05-26T18:44:58.249Z,95138.58
2019-05-26T18:47:24.966Z,95139.10
2019-05-26T18:49:51.809Z,95143.08
2019-05-26T18:52:18.568Z,95141.67
2019-05-26T18:54:45.335Z,95142.25
2019-05-26T18:57:13.150Z,95143.88
2019-05-26T18:59:40.056Z,95146.44
2019-05-26T19:02:07.015Z,95148.70
2019-05-26T19:04:33.732Z,95151.35
2019-05-26T19:07:00.487Z,95152.90
2019-05-26T19:09:27.244Z,95159.16
2019-05-26T19:11:53.924Z,95157.30
2019-05-26T19:14:20.636Z,95152.06
2019-05-26T19:16:47.380Z,95158.75
2019-05-26T19:19:14.153Z,95173.61
2019-05-26T19:21:41.567Z,95169.77
2019-05-26T19:24:08.406Z,95167.50
2019-05-26T19:26:35.115Z,95172.73
2019-05-26T19:29:02.093Z,95179.00
2019-05-26T19:31:28.792Z,95178.66
2019-05-26T19:33:55.594Z,95177.03
2019-05-26T19:36:22.274Z,95175.73
2019-05-26T19:38:49.119Z,95185.08
2019-05-26T19:41:15.955Z,95181.81
2019-05-26T19:43:42.968Z,95183.93
2019-05-26T19:46:09.686Z,95186.31
2019-05-26T19:48:37.340Z,95188.48
2019-05-26T19:51:04.490Z,95179.14
2019-05-26T19:53:31.344Z,95189.03
2019-05-26T19:55:58.121Z,95191.84
2019-05-26T19:58:28.426Z,95183.93
2019-05-26T20:00:53.850Z,95183.27
2019-05-26T20:03:20.868Z,95183.97
2019-05-26T20:05:47.633Z,95183.70
2019-05-26T20:08:14.531Z,95183.30
2019-05-26T20:10:41.280Z,95180.18
2019-05-26T20:13:08.185Z,95183.97
2019-05-26T20:15:36.181Z,95178.67
2019-05-26T20:18:03.459Z,95170.91
2019-05-26T20:20:30.341Z,95171.20
2019-05-26T20:22:57.146Z,95168.31
2019-05-26T20:25:23.901Z,95158.62
2019-05-26T20:27:50.679Z,95161.42
2019-05-26T20:30:21.123Z,95168.06
2019-05-26T20:32:46.179Z,95155.16
2019-05-26T20:35:13.361Z,95162.40
2019-05-26T20:37:40.327Z,95162.66
2019-05-26T20:40:08.484Z,95165.50
2019-05-26T20:42:35.457Z,95155.52
2019-05-26T20:45:04.271Z,95157.27
2019-05-26T20:47:31.085Z,95156.70
2019-05-26T20:49:57.894Z,95153.72
2019-05-26T20:52:24.666Z,95153.72
2019-05-26T20:54:51.396Z,95151.50
2019-05-26T20:57:18.287Z,95150.14
2019-05-26T20:59:44.969Z,95153.07
2019-05-26T21:02:11.685Z,95150.02
2019-05-26T21:04:38.392Z,95138.73
2019-05-26T21:07:05.316Z,95147.23
2019-05-26T21:09:32.049Z,95150.14
2019-05-26T21:11:58.865Z,95139.05
2019-05-26T21:14:26.634Z,95143.70
2019-05-26T21:16:53.569Z,95147.34
2019-05-26T21:19:20.254Z,95156.29
2019-05-26T21:21:47.025Z,95151.48
2019-05-26T21:24:13.784Z,95150.00
2019-05-26T21:26:40.538Z,95146.59
2019-05-26T21:29:07.322Z,95138.36
2019-05-26T21:31:34.083Z,95141.59
2019-05-26T21:34:00.809Z,95138.91
2019-05-26T21:36:27.652Z,95146.47
2019-05-26T21:38:54.488Z,95147.38
2019-05-26T21:41:21.232Z,95142.80
2019-05-26T21:43:47.946Z,95146.87
2019-05-26T21:46:14.846Z,95147.72
2019-05-26T21:48:41.574Z,95139.00
2019-05-26T21:51:08.244Z,95141.61
2019-05-26T21:53:35.186Z,95143.19
2019-05-26T21:56:01.904Z,95146.59
2019-05-26T21:58:28.667Z,95146.87
2019-05-26T22:00:55.754Z,95143.86
2019-05-26T22:03:23.632Z,95150.40
2019-05-26T22:05:50.446Z,95151.65
2019-05-26T22:08:17.288Z,95147.50
2019-05-26T22:10:44.118Z,95146.75
2019-05-26T22:13:10.964Z,95147.23
2019-05-26T22:15:37.686Z,95148.23
2019-05-26T22:18:04.903Z,95152.21
2019-05-26T22:20:31.746Z,95149.33
2019-05-26T22:22:58.432Z,95144.83
2019-05-26T22:25:25.165Z,95147.22
2019-05-26T22:27:52.182Z,95157.08
2019-05-26T22:30:19.174Z,95150.56
2019-05-26T22:32:45.944Z,95144.15
2019-05-26T22:35:12.773Z,95147.73
2019-05-26T22:37:39.475Z,95138.87
2019-05-26T22:40:06.685Z,95132.56
2019-05-26T22:42:33.450Z,95137.85
2019-05-26T22:45:00.229Z,95130.37
2019-05-26T22:47:27.163Z,95130.27
2019-05-26T22:49:55.940Z,95124.23
2019-05-26T22:52:22.633Z,95128.89
2019-05-26T22:54:49.409Z,95130.06
2019-05-26T22:57:16.150Z,95134.09
2019-05-26T22:59:42.868Z,95134.16
2019-05-26T23:02:09.557Z,95129.23
2019-05-26T23:04:36.296Z,95127.13
2019-05-26T23:07:03.118Z,95124.05
2019-05-26T23:09:29.813Z,95125.48
2019-05-26T23:11:56.665Z,95127.01
2019-05-26T23:14:23.439Z,95128.95
2019-05-26T23:16:51.715Z,95127.36
2019-05-26T23:19:20.070Z,95119.86
2019-05-26T23:21:48.279Z,95120.60
2019-05-26T23:24:15.029Z,95116.27
2019-05-26T23:26:41.913Z,95116.36
2019-05-26T23:29:08.718Z,95106.42
2019-05-26T23:31:35.430Z,95108.51
2019-05-26T23:34:02.126Z,95113.90
2019-05-26T23:36:28.796Z,95114.99
2019-05-26T23:38:55.594Z,95108.30
2019-05-26T23:41:23.432Z,95106.02
2019-05-26T23:43:50.221Z,95102.73
2019-05-26T23:46:16.965Z,95106.13
2019-05-26T23:48:44.300Z,95106.00
2019-05-26T23:51:11.127Z,95104.32
2019-05-26T23:53:37.951Z,95099.48
2019-05-26T23:56:05.078Z,95100.00
2019-05-26T23:58:31.943Z,95103.58
